Time;durP1;ratioP1;P1;durP2;ratioP2;P2;SDS_P1;SDS_P2;PMS_P1;PMS_P2;Temp;Humidity;BMP_temperature;BMP_pressure;BME280_temperature;BME280_humidity;BME280_pressure;Samples;Min_cycle;Max_cycle;Signal;HPM_P1;HPM_P2
2024/01/06 10:21:06;;;;;;;;;1.50;1.50;;;;;19.00;35.64;100906.22;5072300;28;45429;-71
2024/01/06 10:23:32;;;;;;;;;1.00;1.00;;;;;18.33;36.91;100914.09;5055196;28;45374;-69
2024/01/06 10:25:58;;;;;;;;;2.00;2.00;;;;;17.96;37.61;100918.69;5055857;28;45494;-71
2024/01/06 10:28:24;;;;;;;;;5.50;3.75;;;;;17.39;38.25;100930.03;5055717;28;45462;-70
2024/01/06 10:30:54;;;;;;;;;4.25;2.00;;;;;16.92;38.67;100944.22;5055077;28;46579;-69
2024/01/06 10:33:22;;;;;;;;;3.50;3.50;;;;;16.61;39.48;100934.59;5055398;28;45342;-70
2024/01/06 10:35:48;;;;;;;;;1.00;1.00;;;;;16.37;39.94;100938.06;5053204;28;45417;-69
2024/01/06 10:38:15;;;;;;;;;3.00;3.00;;;;;16.09;40.00;100929.06;5055251;28;45282;-68
2024/01/06 10:40:56;;;;;;;;;3.00;1.25;;;;;15.79;40.65;100928.38;5055031;28;46349;-69
2024/01/06 10:43:24;;;;;;;;;5.25;2.00;;;;;15.67;41.07;100927.31;5055737;28;45466;-69
2024/01/06 10:45:51;;;;;;;;;2.25;2.25;;;;;15.69;41.26;100930.81;5055815;27;45247;-70
2024/01/06 10:48:18;;;;;;;;;1.75;1.75;;;;;15.60;41.32;100936.78;5055497;28;45485;-71
2024/01/06 10:50:44;;;;;;;;;3.00;2.50;;;;;15.38;41.11;100929.16;5055617;28;45260;-69
2024/01/06 10:53:13;;;;;;;;;1.00;1.00;;;;;15.30;41.02;100930.59;5053929;28;56807;-69
2024/01/06 10:55:40;;;;;;;;;2.50;0.00;;;;;15.17;41.89;100940.41;5055473;28;45390;-69
2024/01/06 10:58:07;;;;;;;;;2.75;2.75;;;;;15.04;41.73;100943.00;5055170;28;45511;-69
2024/01/06 11:00:33;;;;;;;;;2.00;2.00;;;;;14.81;42.25;100946.22;5054535;28;46590;-69
2024/01/06 11:02:59;;;;;;;;;2.00;2.00;;;;;14.86;42.54;100950.41;5055012;28;45538;-71
2024/01/06 11:05:25;;;;;;;;;1.50;1.50;;;;;14.90;42.30;100942.97;5055018;28;45274;-69
2024/01/06 11:07:55;;;;;;;;;1.75;1.75;;;;;14.65;42.82;100924.69;5054861;28;45348;-72
2024/01/06 11:10:23;;;;;;;;;1.75;1.75;;;;;14.87;42.79;100940.47;5053572;28;46164;-71
2024/01/06 11:13:08;;;;;;;;;2.50;2.00;;;;;14.82;42.97;100937.16;5054891;28;45427;-72
2024/01/06 11:15:41;;;;;;;;;1.00;1.00;;;;;14.89;42.91;100934.00;5054808;28;45373;-71
2024/01/06 11:18:07;;;;;;;;;0.00;0.00;;;;;14.89;42.97;100941.22;5054940;28;45453;-72
2024/01/06 11:20:32;;;;;;;;;3.50;3.50;;;;;14.96;43.25;100934.50;5069976;28;45405;-71
2024/01/06 11:23:21;;;;;;;;;1.50;1.50;;;;;15.10;43.30;100934.53;5075158;28;45755;-69
2024/01/06 11:25:46;;;;;;;;;1.50;1.50;;;;;15.23;42.51;100937.31;5075056;28;45425;-70
2024/01/06 11:28:12;;;;;;;;;3.75;3.00;;;;;15.37;42.27;100938.22;5074676;27;45353;-68
2024/01/06 11:30:38;;;;;;;;;1.75;1.75;;;;;15.45;42.51;100930.50;5068895;28;45999;-68
2024/01/06 11:33:04;;;;;;;;;3.25;2.00;;;;;15.57;42.01;100928.88;5049550;28;45296;-68
2024/01/06 11:35:30;;;;;;;;;2.00;2.00;;;;;15.43;41.79;100918.03;5061371;28;45575;-69
2024/01/06 11:38:00;;;;;;;;;2.00;2.00;;;;;15.63;41.41;100919.53;5061194;28;45384;-69
2024/01/06 11:40:32;;;;;;;;;3.00;3.00;;;;;15.47;41.64;100935.81;5061087;28;46215;-69
2024/01/06 11:43:26;;;;;;;;;1.50;1.50;;;;;15.40;41.35;100918.22;5061324;28;45387;-67
2024/01/06 11:45:56;;;;;;;;;1.00;1.00;;;;;15.53;41.12;100913.78;5058606;28;45570;-69
2024/01/06 11:48:24;;;;;;;;;2.00;2.00;;;;;15.49;41.40;100914.94;5060559;28;45517;-68
2024/01/06 11:50:49;;;;;;;;;3.50;2.75;;;;;15.65;41.56;100912.19;5043644;28;45411;-68
2024/01/06 11:53:15;;;;;;;;;4.75;2.00;;;;;15.72;41.56;100910.81;5060945;28;45459;-67
2024/01/06 11:55:42;;;;;;;;;9.00;5.00;;;;;15.89;41.81;100908.75;5061205;28;45446;-68
2024/01/06 11:58:07;;;;;;;;;4.00;3.00;;;;;15.88;41.66;100901.63;5060940;28;45630;-68
2024/01/06 12:00:33;;;;;;;;;2.00;2.00;;;;;15.78;41.59;100908.59;5060302;28;45425;-67
2024/01/06 12:03:00;;;;;;;;;2.00;2.00;;;;;15.57;41.84;100899.13;5060667;28;45327;-70
2024/01/06 12:05:27;;;;;;;;;4.00;2.25;;;;;15.38;42.01;100883.22;5061431;28;45333;-68
2024/01/06 12:08:01;;;;;;;;;2.00;2.00;;;;;15.54;41.91;100893.09;5060955;28;45371;-69
2024/01/06 12:10:28;;;;;;;;;2.25;2.25;;;;;15.66;41.05;100889.56;5060694;28;45433;-69
2024/01/06 12:13:02;;;;;;;;;1.75;1.00;;;;;15.82;41.06;100893.03;5059953;28;45285;-69
2024/01/06 12:15:30;;;;;;;;;1.00;1.00;;;;;15.77;40.60;100873.53;5058792;28;45342;-69
2024/01/06 12:17:56;;;;;;;;;1.50;1.00;;;;;16.03;40.23;100878.09;5060651;28;45335;-68
2024/01/06 12:20:23;;;;;;;;;5.00;1.00;;;;;15.97;40.28;100886.63;5060542;28;46174;-70
2024/01/06 12:22:49;;;;;;;;;3.00;3.00;;;;;15.91;39.78;100884.31;5060694;28;45407;-70
2024/01/06 12:25:15;;;;;;;;;2.00;2.00;;;;;16.05;40.87;100897.81;5043290;28;45367;-68
2024/01/06 12:27:44;;;;;;;;;2.50;2.00;;;;;15.92;39.94;100879.75;5060297;28;45486;-69
2024/01/06 12:30:15;;;;;;;;;1.00;1.00;;;;;15.89;40.25;100895.25;5059388;28;46439;-69
2024/01/06 12:32:42;;;;;;;;;0.00;0.00;;;;;15.99;39.83;100891.94;5060401;28;45484;-71
2024/01/06 12:35:08;;;;;;;;;2.00;1.00;;;;;16.03;39.65;100897.03;5060931;28;45320;-69
2024/01/06 12:37:35;;;;;;;;;3.00;2.00;;;;;15.95;39.52;100893.09;5060161;28;45461;-68
2024/01/06 12:40:01;;;;;;;;;3.50;1.00;;;;;15.76;40.31;100894.28;5060497;28;45286;-70
2024/01/06 12:42:27;;;;;;;;;2.25;2.00;;;;;15.72;40.47;100897.31;5059325;28;45251;-69
2024/01/06 12:44:52;;;;;;;;;1.75;1.75;;;;;15.77;40.08;100874.41;5060023;28;45415;-70
2024/01/06 12:47:17;;;;;;;;;2.00;1.00;;;;;15.89;39.97;100892.53;5060245;28;45543;-69
2024/01/06 12:49:43;;;;;;;;;1.00;1.00;;;;;15.91;40.17;100889.72;5060350;28;45505;-69
2024/01/06 12:52:08;;;;;;;;;1.75;1.75;;;;;15.77;40.95;100892.47;5060121;28;45374;-69
2024/01/06 12:54:34;;;;;;;;;0.50;0.50;;;;;15.75;40.58;100875.47;5059854;28;45355;-68
2024/01/06 12:56:59;;;;;;;;;1.00;1.00;;;;;15.68;40.86;100891.22;5060033;28;45378;-72
2024/01/06 12:59:25;;;;;;;;;2.50;2.50;;;;;15.61;40.98;100891.72;5059400;28;45252;-72
2024/01/06 13:01:50;;;;;;;;;1.25;1.25;;;;;15.40;41.16;100886.69;5059604;28;45405;-71
2024/01/06 13:04:15;;;;;;;;;2.50;1.50;;;;;15.48;41.43;100884.34;5059046;28;45295;-71
2024/01/06 13:06:41;;;;;;;;;3.25;3.00;;;;;15.76;41.68;100888.00;5058672;28;63692;-71
2024/01/06 13:09:07;;;;;;;;;1.00;1.00;;;;;15.65;41.58;100890.56;5058825;28;45323;-70
2024/01/06 13:11:34;;;;;;;;;2.00;2.00;;;;;15.54;41.81;100890.38;5059529;28;45561;-68
2024/01/06 13:14:00;;;;;;;;;1.00;1.00;;;;;15.50;41.47;100884.25;5059742;28;45347;-68
2024/01/06 13:16:25;;;;;;;;;1.00;1.00;;;;;15.43;41.24;100882.91;5059134;28;57022;-66
2024/01/06 13:18:51;;;;;;;;;2.00;2.00;;;;;15.72;40.89;100892.78;5058589;28;66128;-67
2024/01/06 13:21:17;;;;;;;;;2.00;2.00;;;;;15.91;40.92;100891.56;5059713;28;45355;-67
2024/01/06 13:23:42;;;;;;;;;3.00;1.75;;;;;15.97;40.87;100894.75;5041860;28;45478;-66
2024/01/06 13:26:08;;;;;;;;;2.00;2.00;;;;;15.97;40.69;100888.47;5059613;28;45327;-66
2024/01/06 13:28:33;;;;;;;;;18.50;7.50;;;;;15.94;40.84;100899.47;5058666;28;45328;-65
2024/01/06 13:30:59;;;;;;;;;1.00;0.00;;;;;16.00;40.64;100913.44;5058637;28;45363;-66
2024/01/06 13:33:24;;;;;;;;;0.00;0.00;;;;;15.91;40.51;100894.28;5059855;28;45324;-67
2024/01/06 13:35:50;;;;;;;;;2.50;1.00;;;;;15.96;40.41;100902.94;5059198;28;45384;-68
2024/01/06 13:38:16;;;;;;;;;0.25;0.00;;;;;16.00;40.25;100908.03;5058770;28;47189;-65
2024/01/06 13:40:41;;;;;;;;;0.25;0.25;;;;;15.77;40.33;100892.47;5059320;28;45442;-64
2024/01/06 13:43:08;;;;;;;;;1.00;1.00;;;;;15.75;40.32;100899.78;5059792;28;45485;-64
2024/01/06 13:45:34;;;;;;;;;1.00;1.00;;;;;15.82;40.70;100898.44;5059015;28;45371;-66
2024/01/06 13:47:59;;;;;;;;;1.00;1.00;;;;;15.84;40.31;100896.50;5059244;28;46037;-67
2024/01/06 13:50:25;;;;;;;;;3.25;1.00;;;;;15.69;40.69;100897.50;5058850;28;53401;-64
2024/01/06 13:52:50;;;;;;;;;0.75;0.75;;;;;15.62;40.74;100894.31;5059126;28;52945;-68
2024/01/06 13:55:15;;;;;;;;;1.00;1.00;;;;;15.67;41.04;100903.00;5058859;28;45269;-66
2024/01/06 13:57:41;;;;;;;;;0.50;0.50;;;;;15.68;41.01;100911.97;5059325;28;45871;-66
2024/01/06 14:00:10;;;;;;;;;1.00;1.00;;;;;15.76;41.16;100909.63;5040714;28;45356;-65
2024/01/06 14:02:37;;;;;;;;;1.00;1.00;;;;;15.68;41.15;100910.13;5057901;28;45430;-66
2024/01/06 14:05:04;;;;;;;;;1.00;1.00;;;;;15.72;40.93;100918.94;5056398;28;45371;-65
2024/01/06 14:07:29;;;;;;;;;1.00;1.00;;;;;15.67;41.21;100919.22;5041175;28;48345;-67
2024/01/06 14:09:54;;;;;;;;;1.00;0.00;;;;;15.70;41.40;100910.03;5059041;28;45296;-66
2024/01/06 14:12:19;;;;;;;;;1.00;1.00;;;;;15.79;41.20;100923.84;5058712;28;55789;-66
2024/01/06 14:14:46;;;;;;;;;0.75;0.75;;;;;15.77;41.33;100916.78;5057806;28;65862;-65
2024/01/06 14:17:11;;;;;;;;;2.00;1.00;;;;;15.95;41.31;100925.53;5058011;28;45343;-64
2024/01/06 14:19:36;;;;;;;;;1.00;1.00;;;;;16.01;40.89;100923.28;5058599;28;45262;-64
2024/01/06 14:22:04;;;;;;;;;2.50;2.50;;;;;16.08;40.83;100926.47;5058273;28;57710;-65
2024/01/06 14:24:30;;;;;;;;;4.00;1.50;;;;;16.19;40.40;100930.19;5057698;28;45363;-65
2024/01/06 14:26:55;;;;;;;;;2.00;2.00;;;;;16.37;40.18;100936.22;5058327;28;45403;-65
2024/01/06 14:29:21;;;;;;;;;1.00;1.00;;;;;16.27;40.71;100935.97;5058479;28;45384;-64
2024/01/06 14:31:46;;;;;;;;;3.00;2.00;;;;;16.32;40.69;100934.81;5040422;28;45510;-65
2024/01/06 14:34:12;;;;;;;;;1.00;1.00;;;;;16.23;40.42;100930.88;5058488;28;45470;-65
2024/01/06 14:36:38;;;;;;;;;1.00;1.00;;;;;16.26;40.94;100936.94;5058374;28;45325;-65
2024/01/06 14:39:06;;;;;;;;;0.00;0.00;;;;;16.32;40.60;100940.22;5058221;28;45472;-65
2024/01/06 14:41:32;;;;;;;;;1.25;1.25;;;;;16.32;40.67;100940.22;5058762;28;45454;-65
2024/01/06 14:43:58;;;;;;;;;2.00;1.00;;;;;16.26;40.79;100946.88;5057993;28;45260;-66
2024/01/06 14:46:24;;;;;;;;;0.75;0.75;;;;;16.20;40.58;100944.59;5058022;28;46241;-64
2024/01/06 14:48:49;;;;;;;;;2.00;2.00;;;;;16.25;40.48;100951.44;5058109;28;45380;-65
2024/01/06 14:51:14;;;;;;;;;1.50;1.00;;;;;16.12;40.77;100955.06;5058110;28;53671;-64
2024/01/06 14:53:39;;;;;;;;;1.75;1.50;;;;;16.17;40.86;100970.00;5058043;28;53051;-64
2024/01/06 14:56:05;;;;;;;;;2.50;1.00;;;;;16.22;40.85;100967.88;5057550;28;71124;-65
2024/01/06 14:58:30;;;;;;;;;0.75;0.75;;;;;16.19;40.88;100967.22;5058151;28;45418;-65
2024/01/06 15:00:56;;;;;;;;;1.50;1.50;;;;;16.23;40.92;100969.63;5058509;28;45252;-65
2024/01/06 15:03:23;;;;;;;;;1.75;1.75;;;;;16.25;40.52;100972.19;5058142;28;45415;-65
2024/01/06 15:05:48;;;;;;;;;1.00;1.00;;;;;16.24;40.70;100979.47;5057323;28;46171;-66
2024/01/06 15:08:14;;;;;;;;;2.00;1.25;;;;;16.24;40.43;100984.03;5061759;28;45325;-65
2024/01/06 15:10:39;;;;;;;;;1.25;1.00;;;;;16.22;40.60;100980.53;5061944;28;45272;-65
2024/01/06 15:13:04;;;;;;;;;1.00;1.00;;;;;16.16;40.62;100978.25;5061752;28;45240;-66
2024/01/06 15:15:30;;;;;;;;;1.00;1.00;;;;;16.17;40.41;100986.22;5060993;28;59035;-65
2024/01/06 15:17:55;;;;;;;;;2.25;1.00;;;;;16.18;40.66;100993.38;5061380;28;45305;-66
2024/01/06 15:20:21;;;;;;;;;0.00;0.00;;;;;16.20;40.19;100985.19;5061708;28;45229;-65
2024/01/06 15:22:46;;;;;;;;;1.00;1.00;;;;;16.14;40.45;100997.28;5061523;28;45907;-66
2024/01/06 15:25:11;;;;;;;;;0.00;0.00;;;;;16.03;40.18;100994.38;5061647;28;45356;-66
2024/01/06 15:27:37;;;;;;;;;0.00;0.00;;;;;15.97;40.56;100989.38;5061484;28;45342;-65
2024/01/06 15:30:06;;;;;;;;;3.75;0.75;;;;;15.99;40.24;101002.81;5061478;28;45368;-65
2024/01/06 15:32:32;;;;;;;;;2.00;1.00;;;;;15.98;40.17;100995.66;5061279;28;45327;-64
2024/01/06 15:34:57;;;;;;;;;0.25;0.25;;;;;15.98;40.43;101004.66;5061239;28;45384;-65
2024/01/06 15:37:22;;;;;;;;;0.00;0.00;;;;;15.95;40.22;101006.66;5060319;28;63013;-65
2024/01/06 15:39:48;;;;;;;;;0.25;0.25;;;;;15.93;40.33;101011.28;5060566;28;48385;-65
2024/01/06 15:42:13;;;;;;;;;1.25;1.25;;;;;15.87;40.10;100988.22;5061114;28;45328;-65
2024/01/06 15:44:39;;;;;;;;;1.75;1.00;;;;;15.95;40.20;101007.53;5061061;28;46092;-66
2024/01/06 15:47:04;;;;;;;;;2.00;1.00;;;;;15.88;40.72;101003.50;5060953;28;45282;-66
2024/01/06 15:49:29;;;;;;;;;1.00;1.00;;;;;15.94;40.64;101015.75;5061278;28;45327;-65
2024/01/06 15:51:57;;;;;;;;;1.00;1.00;;;;;15.98;40.45;101020.88;5060900;28;45246;-65
2024/01/06 15:54:22;;;;;;;;;1.00;1.00;;;;;16.00;40.48;101018.03;5060064;28;45298;-65
2024/01/06 15:56:47;;;;;;;;;2.00;2.00;;;;;15.99;40.69;101030.69;5060953;28;45336;-65
2024/01/06 15:59:12;;;;;;;;;2.00;2.00;;;;;15.99;40.49;101027.16;5060483;28;54265;-66
2024/01/06 16:01:38;;;;;;;;;1.50;1.00;;;;;15.89;40.64;101022.31;5060715;28;45545;-65
2024/01/06 16:04:03;;;;;;;;;1.00;1.00;;;;;15.74;40.57;101030.50;5060800;28;50508;-65
2024/01/06 16:06:28;;;;;;;;;1.00;1.00;;;;;15.75;40.61;101032.25;5060831;28;45379;-65
2024/01/06 16:08:54;;;;;;;;;0.00;0.00;;;;;15.85;40.65;101038.81;5061211;28;45312;-65
2024/01/06 16:11:19;;;;;;;;;2.00;2.00;;;;;15.89;40.74;101037.69;5060508;28;49307;-64
2024/01/06 16:13:44;;;;;;;;;1.00;1.00;;;;;15.94;40.59;101040.06;5041960;28;46252;-69
2024/01/06 16:16:10;;;;;;;;;1.50;1.00;;;;;16.01;40.88;101036.00;5059625;28;45409;-68
2024/01/06 16:18:35;;;;;;;;;2.00;2.00;;;;;15.99;40.31;101043.38;5060112;28;45371;-66
2024/01/06 16:21:02;;;;;;;;;2.25;1.75;;;;;16.04;40.40;101042.09;5059445;28;63650;-68
2024/01/06 16:23:27;;;;;;;;;2.00;0.75;;;;;16.02;40.27;101048.56;5060738;28;47085;-66
2024/01/06 16:25:52;;;;;;;;;1.00;1.00;;;;;16.03;40.09;101053.00;5059796;28;60831;-67
2024/01/06 16:28:17;;;;;;;;;1.50;1.50;;;;;15.97;40.32;101045.31;5060040;28;57595;-67
2024/01/06 16:30:43;;;;;;;;;1.25;1.00;;;;;15.93;40.75;101050.03;5059829;28;62181;-66
2024/01/06 16:33:08;;;;;;;;;1.00;1.00;;;;;15.87;40.45;101045.88;5060757;28;45329;-68
2024/01/06 16:35:34;;;;;;;;;1.25;1.25;;;;;15.79;40.82;101055.44;5060521;28;45245;-68
2024/01/06 16:38:01;;;;;;;;;1.00;1.00;;;;;15.73;41.04;101047.72;5060527;28;45382;-67
2024/01/06 16:40:27;;;;;;;;;1.25;1.25;;;;;15.70;41.24;101056.00;5059950;28;45659;-69
2024/01/06 16:42:52;;;;;;;;;0.00;0.00;;;;;15.66;41.01;101044.50;5059976;28;45316;-69
2024/01/06 16:45:18;;;;;;;;;1.00;1.00;;;;;15.81;40.92;101061.63;5059481;28;45478;-68
2024/01/06 16:47:44;;;;;;;;;1.00;1.00;;;;;15.68;40.71;101057.94;5060293;28;45315;-69
2024/01/06 16:50:09;;;;;;;;;1.00;1.00;;;;;15.65;40.97;101064.38;5060200;28;45460;-70
2024/01/06 16:52:36;;;;;;;;;1.00;1.00;;;;;15.57;41.31;101063.16;5060291;28;45303;-69
2024/01/06 16:55:01;;;;;;;;;0.75;0.75;;;;;15.60;41.21;101065.66;5060184;28;45549;-69
2024/01/06 16:57:28;;;;;;;;;2.00;1.00;;;;;15.49;41.00;101037.41;5059957;28;45368;-70
2024/01/06 16:59:53;;;;;;;;;1.00;1.00;;;;;15.61;40.95;101068.25;5059397;28;45308;-69
2024/01/06 17:02:19;;;;;;;;;1.00;1.00;;;;;15.67;41.14;101062.47;5059281;28;45190;-67
2024/01/06 17:04:44;;;;;;;;;0.00;0.00;;;;;15.78;40.83;101078.91;5058051;28;53908;-68
2024/01/06 17:07:09;;;;;;;;;1.00;1.00;;;;;15.79;41.08;101079.75;5059355;28;46005;-68
2024/01/06 17:09:35;;;;;;;;;1.00;1.00;;;;;15.91;41.13;101084.38;5059695;28;46005;-70
2024/01/06 17:12:01;;;;;;;;;2.00;2.00;;;;;15.83;41.32;101084.88;5059212;28;47213;-69
2024/01/06 17:14:26;;;;;;;;;1.50;1.50;;;;;15.70;41.14;101088.44;5059068;28;45370;-69
2024/01/06 17:16:52;;;;;;;;;2.75;1.00;;;;;15.56;41.60;101094.72;5059657;28;45305;-67
2024/01/06 17:19:17;;;;;;;;;1.00;1.00;;;;;15.68;41.79;101093.94;5058629;28;52170;-70
2024/01/06 17:21:42;;;;;;;;;2.00;2.00;;;;;15.54;42.33;101091.22;5058957;28;64356;-69
2024/01/06 17:24:07;;;;;;;;;0.00;0.00;;;;;15.37;42.31;101094.91;5059061;28;54273;-70
2024/01/06 17:26:33;;;;;;;;;3.25;3.25;;;;;15.25;42.78;101092.06;5059414;28;54937;-73
2024/01/06 17:28:58;;;;;;;;;2.00;2.00;;;;;15.13;42.83;101072.06;5058361;28;54371;-70
2024/01/06 17:31:24;;;;;;;;;3.00;3.00;;;;;15.27;43.43;101096.41;5059431;28;45421;-69
2024/01/06 17:33:50;;;;;;;;;1.75;1.75;;;;;15.18;43.67;101102.38;5055139;28;45475;-69
2024/01/06 17:36:16;;;;;;;;;5.00;3.25;;;;;15.20;44.30;101108.56;5056327;28;45402;-69
2024/01/06 17:38:42;;;;;;;;;1.50;1.50;;;;;15.30;44.87;101114.28;5057651;28;45347;-69
2024/01/06 17:41:07;;;;;;;;;2.50;2.50;;;;;15.34;45.27;101105.88;5059183;28;45365;-70
2024/01/06 17:43:33;;;;;;;;;2.00;2.00;;;;;15.49;45.40;101115.78;5058939;28;45357;-69
2024/01/06 17:45:58;;;;;;;;;3.25;3.25;;;;;15.57;45.51;101117.19;5059145;28;45478;-69
2024/01/06 17:48:24;;;;;;;;;3.50;3.50;;;;;15.54;44.99;101120.06;5058523;28;55118;-70
2024/01/06 17:50:49;;;;;;;;;4.00;3.00;;;;;15.54;45.54;101115.53;5057978;28;45470;-69
2024/01/06 17:53:15;;;;;;;;;3.50;3.50;;;;;15.37;45.97;101119.22;5054638;28;45463;-69
2024/01/06 17:55:40;;;;;;;;;1.25;0.25;;;;;15.31;45.88;101116.88;5047253;28;45723;-72
2024/01/06 17:58:06;;;;;;;;;3.75;3.25;;;;;15.24;45.86;101117.31;5056283;28;45533;-71
2024/01/06 18:00:32;;;;;;;;;3.75;3.00;;;;;15.30;45.79;101120.56;5055336;28;45354;-71
2024/01/06 18:02:57;;;;;;;;;3.50;3.00;;;;;15.22;46.54;101120.16;5057718;28;45366;-69
2024/01/06 18:05:22;;;;;;;;;2.75;2.00;;;;;15.22;46.31;101119.28;5058977;28;45272;-69
2024/01/06 18:07:48;;;;;;;;;3.75;2.75;;;;;15.25;46.08;101130.75;5058475;28;45421;-71
2024/01/06 18:10:14;;;;;;;;;6.00;6.00;;;;;15.23;46.33;101132.66;5057471;28;47027;-69
2024/01/06 18:12:41;;;;;;;;;3.00;3.00;;;;;15.26;46.31;101126.22;5058517;28;45355;-70
2024/01/06 18:15:06;;;;;;;;;5.25;3.00;;;;;15.29;46.24;101134.16;5054398;28;45505;-69
2024/01/06 18:17:35;;;;;;;;;6.00;3.75;;;;;15.11;45.92;101114.50;5055327;28;45769;-70
2024/01/06 18:20:00;;;;;;;;;4.25;4.25;;;;;15.28;46.14;101143.22;5055207;28;46352;-71
2024/01/06 18:22:25;;;;;;;;;7.75;4.50;;;;;15.33;46.06;101138.41;5055533;28;45540;-70
2024/01/06 18:24:51;;;;;;;;;5.00;3.25;;;;;15.32;45.98;101124.00;5054608;28;45480;-71
2024/01/06 18:27:16;;;;;;;;;3.75;2.00;;;;;15.52;45.97;101136.34;5055448;28;45395;-70
2024/01/06 18:29:42;;;;;;;;;7.25;5.25;;;;;15.57;45.87;101136.97;5057594;28;45393;-70
2024/01/06 18:32:08;;;;;;;;;4.50;4.00;;;;;15.71;45.76;101144.25;5045079;28;45380;-71
2024/01/06 18:34:33;;;;;;;;;4.25;4.25;;;;;15.64;45.76;101146.47;5058874;28;45351;-70
2024/01/06 18:36:59;;;;;;;;;10.25;6.50;;;;;15.63;45.79;101141.13;5058179;28;45516;-69
2024/01/06 18:39:24;;;;;;;;;4.75;3.75;;;;;15.57;46.03;101144.22;5058079;28;46275;-72
2024/01/06 18:41:50;;;;;;;;;5.25;5.25;;;;;15.60;46.38;101134.06;5059401;28;50873;-70
2024/01/06 18:44:15;;;;;;;;;5.00;5.00;;;;;15.58;46.22;101160.31;5061626;28;45422;-70
2024/01/06 18:46:42;;;;;;;;;3.50;3.50;;;;;15.48;46.70;101151.84;5061938;28;45493;-69
2024/01/06 18:49:08;;;;;;;;;4.00;4.00;;;;;15.57;46.36;101160.44;5043334;28;45402;-70
2024/01/06 18:51:36;;;;;;;;;3.50;3.50;;;;;15.49;46.45;101153.59;5061616;28;45759;-70
2024/01/06 18:54:06;;;;;;;;;2.50;2.50;;;;;15.57;46.63;101155.03;5061589;28;45426;-70
2024/01/06 18:56:32;;;;;;;;;4.50;4.50;;;;;15.63;46.69;101157.34;5042738;28;46558;-70
2024/01/06 18:58:58;;;;;;;;;4.50;4.50;;;;;15.69;46.54;101159.69;5060468;28;45463;-69
2024/01/06 19:01:23;;;;;;;;;7.00;7.00;;;;;15.67;46.52;101167.88;5061536;28;45406;-66
2024/01/06 19:03:48;;;;;;;;;4.75;4.75;;;;;15.65;46.75;101171.66;5061352;28;47629;-68
2024/01/06 19:06:14;;;;;;;;;6.75;6.75;;;;;15.69;46.60;101170.50;5061660;28;45409;-68
2024/01/06 19:08:40;;;;;;;;;7.00;7.00;;;;;15.57;47.03;101144.22;5061547;28;46137;-67
2024/01/06 19:11:06;;;;;;;;;4.75;4.75;;;;;15.70;46.90;101172.25;5048128;28;45480;-68
2024/01/06 19:13:31;;;;;;;;;6.00;4.75;;;;;15.55;47.07;101182.16;5043614;28;45403;-67
2024/01/06 19:15:57;;;;;;;;;5.25;5.25;;;;;15.66;47.32;101189.59;5061306;28;45309;-68
2024/01/06 19:18:22;;;;;;;;;7.00;4.50;;;;;15.66;47.33;101181.47;5059360;28;45643;-70
2024/01/06 19:20:48;;;;;;;;;5.25;5.25;;;;;15.74;47.19;101182.75;5060167;28;63082;-70
2024/01/06 19:23:13;;;;;;;;;7.50;7.00;;;;;15.73;47.49;101183.75;5061023;28;56305;-69
2024/01/06 19:25:38;;;;;;;;;8.75;7.25;;;;;15.66;46.77;101179.66;5061305;28;45876;-69
2024/01/06 19:28:05;;;;;;;;;7.25;7.25;;;;;15.58;47.57;101184.66;5060660;28;46152;-69
2024/01/06 19:30:30;;;;;;;;;5.25;5.25;;;;;15.50;47.36;101187.78;5056511;28;45318;-71
2024/01/06 19:32:56;;;;;;;;;4.75;3.50;;;;;15.59;47.43;101190.91;5057583;28;45546;-70
2024/01/06 19:35:21;;;;;;;;;7.00;4.75;;;;;15.63;47.12;101190.66;5059905;28;45485;-70
2024/01/06 19:37:48;;;;;;;;;6.25;6.25;;;;;15.68;47.44;101191.25;5057848;28;46417;-69
2024/01/06 19:40:15;;;;;;;;;3.75;3.75;;;;;15.71;47.12;101201.88;5053804;28;45503;-70
2024/01/06 19:42:40;;;;;;;;;7.75;5.00;;;;;15.72;47.08;101198.22;5057834;28;45522;-70
2024/01/06 19:45:06;;;;;;;;;7.50;5.75;;;;;15.77;46.64;101200.63;5055368;28;45357;-68
2024/01/06 19:47:32;;;;;;;;;8.75;7.50;;;;;15.76;46.69;101202.47;5059710;28;45350;-69
2024/01/06 19:49:57;;;;;;;;;10.00;7.00;;;;;15.78;46.42;101205.09;5060715;28;45522;-68
2024/01/06 19:52:23;;;;;;;;;7.25;7.25;;;;;15.78;46.54;101194.28;5060534;28;45353;-70
2024/01/06 19:54:50;;;;;;;;;7.00;7.00;;;;;15.77;46.34;101214.16;5060063;28;50800;-68
2024/01/06 19:57:16;;;;;;;;;11.75;9.25;;;;;15.70;46.59;101216.38;5060825;28;47064;-69
2024/01/06 19:59:42;;;;;;;;;8.50;6.50;;;;;15.67;46.08;101208.41;5060563;28;45382;-68
2024/01/06 20:02:07;;;;;;;;;8.00;5.50;;;;;15.74;46.39;101204.38;5060926;28;45321;-69
2024/01/06 20:04:32;;;;;;;;;7.00;5.25;;;;;15.78;45.95;101213.19;5060766;28;45524;-69
2024/01/06 20:06:58;;;;;;;;;6.00;4.50;;;;;15.78;45.75;101215.91;5060228;28;64600;-69
2024/01/06 20:09:23;;;;;;;;;4.00;4.00;;;;;15.72;45.51;101208.16;5060557;28;45373;-68
2024/01/06 20:11:48;;;;;;;;;5.00;5.00;;;;;15.74;45.15;101217.03;5060449;28;57769;-70
2024/01/06 20:14:14;;;;;;;;;7.75;5.00;;;;;15.67;45.48;101207.56;5060233;28;48715;-69
2024/01/06 20:16:39;;;;;;;;;7.50;7.50;;;;;15.66;45.24;101203.09;5060278;28;51714;-69
2024/01/06 20:19:04;;;;;;;;;7.00;4.50;;;;;15.65;45.09;101225.72;5060505;28;45359;-69
2024/01/06 20:21:30;;;;;;;;;9.75;8.00;;;;;15.61;45.07;101216.91;5060328;28;45236;-68
2024/01/06 20:23:55;;;;;;;;;10.00;8.00;;;;;15.49;45.20;101213.03;5060577;28;45357;-70
2024/01/06 20:26:20;;;;;;;;;8.75;7.00;;;;;15.62;45.34;101225.88;5060315;28;47137;-68
2024/01/06 20:28:49;;;;;;;;;4.00;3.00;;;;;15.55;45.02;101222.69;5059539;28;45280;-67
2024/01/06 20:31:15;;;;;;;;;5.50;5.50;;;;;15.57;45.23;101230.72;5053888;28;45290;-68
2024/01/06 20:33:40;;;;;;;;;4.00;4.00;;;;;15.64;45.43;101234.78;5053385;28;45339;-69
2024/01/06 20:36:11;;;;;;;;;4.00;4.00;;;;;15.52;45.59;101223.69;5060025;28;46228;-68
2024/01/06 20:38:36;;;;;;;;;9.25;4.50;;;;;15.55;45.15;101238.03;5059773;28;45478;-69
2024/01/06 20:41:03;;;;;;;;;8.00;4.00;;;;;15.38;45.90;101211.97;5060124;28;45250;-69
2024/01/06 20:43:29;;;;;;;;;9.25;7.50;;;;;15.54;45.99;101238.97;5059900;28;45525;-68
2024/01/06 20:45:54;;;;;;;;;9.25;8.00;;;;;15.56;45.94;101235.25;5060202;28;46349;-68
2024/01/06 20:48:20;;;;;;;;;9.00;5.75;;;;;15.52;46.02;101221.00;5059667;28;45394;-69
2024/01/06 20:50:45;;;;;;;;;8.75;7.25;;;;;15.52;45.79;101220.13;5060242;28;45379;-68
2024/01/06 20:53:11;;;;;;;;;8.50;8.50;;;;;15.60;45.92;101230.50;5059871;28;45272;-70
2024/01/06 20:55:36;;;;;;;;;7.25;7.00;;;;;15.55;45.93;101229.91;5059856;28;45377;-69
2024/01/06 20:58:02;;;;;;;;;9.00;9.00;;;;;15.48;45.88;101224.81;5041701;28;45328;-67
2024/01/06 21:00:27;;;;;;;;;7.25;7.25;;;;;15.42;46.22;101227.00;5060017;28;45389;-69
2024/01/06 21:02:52;;;;;;;;;8.00;6.00;;;;;15.46;46.00;101232.16;5059808;28;45298;-68
2024/01/06 21:05:18;;;;;;;;;10.50;8.00;;;;;15.31;45.95;101229.50;5058311;28;63060;-69
2024/01/06 21:07:43;;;;;;;;;10.75;10.75;;;;;15.29;45.90;101232.28;5059046;28;45316;-69
2024/01/06 21:10:10;;;;;;;;;10.75;9.25;;;;;15.34;45.77;101223.88;5041844;28;45454;-68
2024/01/06 21:12:36;;;;;;;;;8.25;8.25;;;;;15.31;46.05;101232.19;5059802;28;46117;-68
2024/01/06 21:15:01;;;;;;;;;7.00;6.50;;;;;15.44;46.20;101228.66;5059251;28;45321;-68
2024/01/06 21:17:27;;;;;;;;;10.50;6.00;;;;;15.63;45.46;101233.91;5041427;28;45339;-69
2024/01/06 21:19:52;;;;;;;;;4.50;4.50;;;;;15.67;45.39;101230.03;5059552;28;45314;-69
2024/01/06 21:22:17;;;;;;;;;13.25;6.50;;;;;15.70;45.51;101224.47;5059244;28;45510;-68
2024/01/06 21:24:46;;;;;;;;;9.00;7.25;;;;;15.64;45.66;101229.38;5059574;28;46004;-68
2024/01/06 21:42:44;;;;;;;;;6.00;6.00;;;;;15.01;46.33;101242.91;5092515;27;45388;-68
2024/01/06 21:45:10;;;;;;;;;3.50;3.00;;;;;15.11;45.73;101217.13;5075055;27;45298;-69
2024/01/06 21:47:36;;;;;;;;;8.00;6.25;;;;;15.36;45.23;101241.75;5075084;28;45341;-68
2024/01/06 21:50:02;;;;;;;;;7.00;7.00;;;;;15.38;45.07;101245.25;5072250;28;45527;-69
2024/01/06 21:52:27;;;;;;;;;4.50;4.50;;;;;15.36;45.03;101241.75;5075108;28;45331;-68
2024/01/06 21:54:52;;;;;;;;;8.00;6.75;;;;;15.31;44.54;101238.44;5074512;28;56169;-69